Time;durP1;ratioP1;P1;durP2;ratioP2;P2;SDS_P1;SDS_P2;PMS_P1;PMS_P2;Temp;Humidity;BMP_temperature;BMP_pressure;BME280_temperature;BME280_humidity;BME280_pressure;Samples;Min_cycle;Max_cycle;Signal;HPM_P1;HPM_P2
2023/06/07 00:00:46;;;;;;;12.97;7.10;;;16.10;99.90;;;;;;4369087;28;659109;-68
2023/06/07 00:03:34;;;;;;;9.53;6.90;;;16.10;99.90;;;;;;4401666;28;659439;-68
2023/06/07 00:06:22;;;;;;;12.00;7.47;;;16.10;99.90;;;;;;4361464;28;657339;-68
2023/06/07 00:09:10;;;;;;;11.87;6.63;;;16.10;99.90;;;;;;4393457;28;658226;-67
2023/06/07 00:11:57;;;;;;;10.67;6.57;;;16.10;99.90;;;;;;4357172;27;659361;-68
2023/06/07 00:14:44;;;;;;;9.00;6.87;;;16.10;99.90;;;;;;4392551;27;658501;-67
2023/06/07 00:17:32;;;;;;;13.53;7.07;;;16.10;99.90;;;;;;4361262;28;658068;-67
2023/06/07 00:20:19;;;;;;;11.00;6.93;;;16.10;99.90;;;;;;4380084;28;658948;-68
2023/06/07 00:23:08;;;;;;;11.63;7.17;;;16.10;99.90;;;;;;4359173;28;658537;-68
2023/06/07 00:25:56;;;;;;;13.00;6.87;;;16.00;99.90;;;;;;4372841;28;658607;-68
2023/06/07 00:28:44;;;;;;;9.27;6.60;;;16.00;99.90;;;;;;4391792;28;658653;-68
2023/06/07 00:31:31;;;;;;;8.03;6.07;;;16.10;99.90;;;;;;4372239;28;657408;-68
2023/06/07 00:34:18;;;;;;;8.67;6.47;;;16.10;99.90;;;;;;4390719;28;657848;-68
2023/06/07 00:37:05;;;;;;;11.07;6.60;;;16.10;99.90;;;;;;4372827;28;658302;-68
2023/06/07 00:39:54;;;;;;;11.90;6.40;;;16.00;99.90;;;;;;4378919;28;659219;-67
2023/06/07 00:42:41;;;;;;;8.10;6.17;;;16.00;99.90;;;;;;4362137;28;658995;-68
2023/06/07 00:45:28;;;;;;;10.37;6.50;;;16.00;99.90;;;;;;4376182;28;659218;-67
2023/06/07 00:48:15;;;;;;;8.97;5.97;;;15.90;99.90;;;;;;4376158;28;659395;-67
2023/06/07 00:51:02;;;;;;;12.83;6.63;;;15.90;99.90;;;;;;4381535;28;658582;-68
2023/06/07 00:53:50;;;;;;;8.83;6.17;;;15.90;99.90;;;;;;4378243;28;658950;-68
2023/06/07 00:56:39;;;;;;;10.77;6.57;;;15.90;99.90;;;;;;4387169;27;658232;-67
2023/06/07 00:59:26;;;;;;;8.00;6.20;;;15.90;99.90;;;;;;4380204;27;659481;-68
2023/06/07 01:02:14;;;;;;;10.50;6.18;;;15.90;99.90;;;;;;4392238;28;658391;-68
2023/06/07 01:05:03;;;;;;;8.17;5.87;;;15.80;99.90;;;;;;4360755;28;658862;-67
2023/06/07 01:07:52;;;;;;;10.27;6.20;;;15.90;99.90;;;;;;4386965;27;657721;-68
2023/06/07 01:10:39;;;;;;;8.40;6.07;;;15.80;99.90;;;;;;4377867;27;658905;-67
2023/06/07 01:13:28;;;;;;;10.37;6.07;;;15.90;99.90;;;;;;4360732;28;657401;-67
2023/06/07 01:16:15;;;;;;;8.23;5.93;;;15.80;99.90;;;;;;4364081;28;658300;-67
2023/06/07 01:19:04;;;;;;;9.60;6.40;;;15.80;99.90;;;;;;4401875;27;657119;-68
2023/06/07 01:21:51;;;;;;;9.57;6.10;;;15.80;99.90;;;;;;4360920;28;658319;-68
2023/06/07 01:24:42;;;;;;;7.50;5.78;;;15.80;99.90;;;;;;4378727;28;658029;-68
2023/06/07 01:27:30;;;;;;;9.40;6.93;;;15.80;99.90;;;;;;4354034;28;657504;-68
2023/06/07 01:30:19;;;;;;;9.97;6.57;;;15.80;99.90;;;;;;4384426;27;658997;-68
2023/06/07 01:33:06;;;;;;;8.67;6.17;;;15.80;99.90;;;;;;4357801;27;657525;-69
2023/06/07 01:35:53;;;;;;;8.87;6.57;;;15.80;99.90;;;;;;4398228;27;658489;-67
2023/06/07 01:38:41;;;;;;;9.83;6.07;;;15.80;99.90;;;;;;4385075;27;657758;-68
2023/06/07 01:41:30;;;;;;;9.00;6.50;;;15.80;99.90;;;;;;4386521;27;658452;-67
2023/06/07 01:44:17;;;;;;;10.10;6.80;;;15.80;99.90;;;;;;4362884;27;658138;-67
2023/06/07 01:47:05;;;;;;;10.57;6.60;;;15.80;99.90;;;;;;4397893;27;658709;-68
2023/06/07 01:49:52;;;;;;;8.37;6.23;;;15.80;99.90;;;;;;4351423;28;659665;-68
2023/06/07 01:52:39;;;;;;;9.27;6.43;;;15.80;99.90;;;;;;4376968;27;657703;-67
2023/06/07 01:55:26;;;;;;;9.37;6.77;;;15.80;99.90;;;;;;4356822;28;657974;-68
2023/06/07 01:58:19;;;;;;;11.30;7.10;;;15.70;99.90;;;;;;4383043;27;658292;-67
2023/06/07 02:01:14;;;;;;;9.30;6.80;;;15.70;99.90;;;;;;4331508;27;660007;-68
2023/06/07 02:04:01;;;;;;;10.87;6.43;;;15.70;99.90;;;;;;4356761;28;657580;-68
2023/06/07 02:06:49;;;;;;;11.68;6.82;;;15.60;99.90;;;;;;4425868;27;659102;-67
2023/06/07 02:09:37;;;;;;;8.40;6.10;;;15.70;99.90;;;;;;4358604;28;658914;-67
2023/06/07 02:12:24;;;;;;;9.83;6.07;;;15.70;99.90;;;;;;4375432;27;658030;-68
2023/06/07 02:15:13;;;;;;;10.83;6.87;;;15.70;99.90;;;;;;4356193;28;657698;-68
2023/06/07 02:18:02;;;;;;;11.03;6.23;;;15.70;99.90;;;;;;4354465;28;658566;-68
2023/06/07 02:20:49;;;;;;;11.23;6.47;;;15.70;99.90;;;;;;4411830;27;658932;-68
2023/06/07 02:23:37;;;;;;;9.13;6.33;;;15.70;99.90;;;;;;4360313;28;659780;-68
2023/06/07 02:26:24;;;;;;;12.63;7.03;;;15.70;99.90;;;;;;4383738;28;657669;-68
2023/06/07 02:29:11;;;;;;;14.67;9.03;;;15.70;99.90;;;;;;4368061;28;658468;-68
2023/06/07 02:32:00;;;;;;;15.60;8.77;;;15.70;99.90;;;;;;4379371;28;658954;-68
2023/06/07 02:34:48;;;;;;;14.67;8.67;;;15.70;99.90;;;;;;4371139;28;659010;-67
2023/06/07 02:37:36;;;;;;;11.67;7.30;;;15.70;99.90;;;;;;4356331;28;658789;-68
2023/06/07 02:40:23;;;;;;;8.80;6.93;;;15.60;99.90;;;;;;4380183;28;659273;-68
2023/06/07 02:43:10;;;;;;;12.50;8.00;;;15.60;99.90;;;;;;4370222;28;657657;-68
2023/06/07 02:45:57;;;;;;;12.67;8.97;;;15.60;99.90;;;;;;4374584;27;659322;-69
2023/06/07 02:48:47;;;;;;;14.30;9.90;;;15.60;99.90;;;;;;4384064;28;658218;-68
2023/06/07 02:51:37;;;;;;;16.03;9.53;;;15.70;99.90;;;;;;4397240;28;658794;-68
2023/06/07 02:54:24;;;;;;;15.83;10.67;;;15.60;99.90;;;;;;4360183;28;659868;-67
2023/06/07 02:57:11;;;;;;;17.33;10.60;;;15.60;99.90;;;;;;4352475;28;660588;-68
2023/06/07 02:59:59;;;;;;;14.50;11.07;;;15.60;99.90;;;;;;4385705;28;660509;-67
2023/06/07 03:02:47;;;;;;;16.67;11.20;;;15.60;99.90;;;;;;4363884;28;659738;-68
2023/06/07 03:05:36;;;;;;;15.73;11.73;;;15.60;99.90;;;;;;4378798;28;660396;-68
2023/06/07 03:08:23;;;;;;;16.47;12.20;;;15.60;99.90;;;;;;4349911;28;660413;-68
2023/06/07 03:11:10;;;;;;;20.53;12.00;;;15.60;99.90;;;;;;4357862;28;660189;-69
2023/06/07 03:13:57;;;;;;;18.37;12.07;;;15.60;99.90;;;;;;4376373;28;660954;-67
2023/06/07 03:16:45;;;;;;;16.87;11.93;;;15.60;99.90;;;;;;4380644;28;660147;-68
2023/06/07 03:19:32;;;;;;;15.43;11.13;;;15.60;99.90;;;;;;4359322;28;659802;-67
2023/06/07 03:22:22;;;;;;;17.07;12.17;;;15.60;99.90;;;;;;4366582;28;660221;-68
2023/06/07 03:25:09;;;;;;;18.60;11.30;;;15.60;99.90;;;;;;4376155;28;659787;-68
2023/06/07 03:27:57;;;;;;;15.73;11.33;;;15.60;99.90;;;;;;4354050;28;660471;-67
2023/06/07 03:30:44;;;;;;;18.27;12.00;;;15.70;99.90;;;;;;4390331;27;659936;-67
2023/06/07 03:33:31;;;;;;;16.03;11.47;;;15.70;99.90;;;;;;4353451;28;660627;-68
2023/06/07 03:36:20;;;;;;;17.27;11.90;;;15.70;99.90;;;;;;4381830;28;660417;-67
2023/06/07 03:39:09;;;;;;;15.20;10.83;;;15.70;99.90;;;;;;4351458;28;659941;-68
2023/06/07 03:41:56;;;;;;;18.53;11.47;;;15.80;99.90;;;;;;4356928;28;659826;-67
2023/06/07 03:44:44;;;;;;;19.40;11.67;;;15.80;99.90;;;;;;4392852;27;660343;-67
2023/06/07 03:47:31;;;;;;;16.10;10.93;;;15.90;99.90;;;;;;4371476;28;659582;-69
2023/06/07 03:50:18;;;;;;;17.90;11.57;;;15.90;99.90;;;;;;4394777;28;660112;-68
2023/06/07 03:53:05;;;;;;;18.37;11.87;;;16.00;99.90;;;;;;4369435;28;659415;-68
2023/06/07 03:55:54;;;;;;;17.67;11.60;;;16.00;99.90;;;;;;4390267;28;660254;-68
2023/06/07 03:58:45;;;;;;;15.53;11.07;;;16.00;99.90;;;;;;4353522;28;660537;-67
2023/06/07 04:01:32;;;;;;;14.77;10.97;;;16.10;99.90;;;;;;4375277;28;660873;-68
2023/06/07 04:04:19;;;;;;;15.70;11.47;;;16.20;99.90;;;;;;4394806;28;659422;-68
2023/06/07 04:07:07;;;;;;;17.33;10.80;;;16.30;99.90;;;;;;4355346;28;660304;-68
2023/06/07 04:09:54;;;;;;;16.13;11.43;;;16.40;99.90;;;;;;4379485;28;659806;-67
2023/06/07 04:12:44;;;;;;;16.23;11.33;;;16.50;99.90;;;;;;4355609;28;660098;-68
2023/06/07 04:15:31;;;;;;;14.20;10.70;;;16.50;99.90;;;;;;4363365;28;660310;-68
2023/06/07 04:18:18;;;;;;;17.57;11.00;;;16.60;99.90;;;;;;4390857;27;660171;-68
2023/06/07 04:21:06;;;;;;;12.90;9.40;;;16.60;99.90;;;;;;4357871;28;659422;-67
2023/06/07 04:23:53;;;;;;;11.97;9.53;;;16.70;99.90;;;;;;4379076;28;659300;-68
2023/06/07 04:26:41;;;;;;;12.83;8.83;;;16.80;99.90;;;;;;4367879;28;658670;-68
2023/06/07 04:29:30;;;;;;;12.73;9.00;;;16.80;99.90;;;;;;4376524;28;659797;-68
2023/06/07 04:32:19;;;;;;;11.00;8.13;;;16.90;99.90;;;;;;4359311;28;659831;-68
2023/06/07 04:35:06;;;;;;;11.50;8.10;;;17.00;99.90;;;;;;4368235;28;658886;-68
2023/06/07 04:37:55;;;;;;;10.77;7.97;;;17.10;99.90;;;;;;4386318;28;659173;-68
2023/06/07 04:40:49;;;;;;;11.03;8.07;;;17.30;99.90;;;;;;4357584;27;658836;-67
2023/06/07 04:43:36;;;;;;;11.20;7.50;;;17.30;99.90;;;;;;4359774;28;658106;-68
2023/06/07 04:46:26;;;;;;;16.90;8.10;;;17.40;99.90;;;;;;4374333;27;659561;-67
2023/06/07 04:49:17;;;;;;;13.10;8.13;;;17.40;99.90;;;;;;4366988;27;659180;-67
2023/06/07 04:52:05;;;;;;;10.67;7.83;;;17.50;99.90;;;;;;4364069;28;659619;-67
2023/06/07 04:54:56;;;;;;;9.47;6.90;;;17.40;99.90;;;;;;4364609;28;659678;-67
2023/06/07 04:57:45;;;;;;;10.47;6.87;;;17.50;99.90;;;;;;4360033;28;657818;-67
2023/06/07 05:00:33;;;;;;;9.00;7.20;;;17.50;99.90;;;;;;4362711;28;658596;-68
2023/06/07 05:03:22;;;;;;;10.83;7.03;;;17.50;99.90;;;;;;4361040;28;657783;-67
2023/06/07 05:06:09;;;;;;;9.80;6.97;;;17.50;99.90;;;;;;4383893;28;658735;-67
2023/06/07 05:08:57;;;;;;;8.67;6.40;;;17.60;99.90;;;;;;4357414;28;659374;-67
2023/06/07 05:11:44;;;;;;;10.47;7.07;;;17.70;99.90;;;;;;4387058;27;657228;-68
2023/06/07 05:14:31;;;;;;;7.10;6.10;;;17.70;99.90;;;;;;4362835;28;659830;-68
2023/06/07 05:17:19;;;;;;;9.07;6.13;;;17.80;99.90;;;;;;4384803;27;658300;-67
2023/06/07 05:20:10;;;;;;;8.93;6.03;;;17.90;99.90;;;;;;4357235;28;658295;-67
2023/06/07 05:22:57;;;;;;;7.20;5.80;;;18.00;99.90;;;;;;4358277;28;658328;-67
2023/06/07 05:25:45;;;;;;;10.43;5.60;;;18.10;99.90;;;;;;4391423;27;657679;-67
2023/06/07 05:28:32;;;;;;;8.83;5.53;;;18.30;99.90;;;;;;4329800;28;659395;-67
2023/06/07 05:31:20;;;;;;;8.20;5.33;;;18.40;99.90;;;;;;4355362;28;657471;-67
2023/06/07 05:34:07;;;;;;;8.33;5.50;;;18.50;99.90;;;;;;4336738;28;659401;-68
2023/06/07 05:36:56;;;;;;;8.03;4.67;;;18.70;99.90;;;;;;4355365;28;657399;-67
2023/06/07 05:39:45;;;;;;;6.40;4.83;;;18.90;99.90;;;;;;4340710;28;659307;-67
2023/06/07 05:42:38;;;;;;;7.87;5.33;;;19.00;99.90;;;;;;4345312;28;658190;-67
2023/06/07 05:45:25;;;;;;;6.77;4.60;;;19.20;99.90;;;;;;4329229;28;658315;-67
2023/06/07 05:48:13;;;;;;;7.57;4.80;;;19.40;99.90;;;;;;4358594;28;658475;-68
2023/06/07 05:51:00;;;;;;;7.07;4.50;;;19.50;99.90;;;;;;4340636;28;657317;-67
2023/06/07 05:53:49;;;;;;;6.60;4.70;;;19.70;99.90;;;;;;4352001;28;658196;-68
2023/06/07 05:56:36;;;;;;;6.40;4.27;;;20.00;99.90;;;;;;4350547;28;657869;-73
2023/06/07 05:59:23;;;;;;;6.63;4.43;;;20.20;99.90;;;;;;4343848;28;657261;-74
2023/06/07 06:02:10;;;;;;;6.30;4.47;;;20.40;99.90;;;;;;4328368;28;657767;-73
2023/06/07 06:04:58;;;;;;;5.57;4.07;;;20.50;99.90;;;;;;4346979;28;658532;-73
2023/06/07 06:07:45;;;;;;;4.57;3.43;;;20.70;99.90;;;;;;4341938;28;658071;-73
2023/06/07 06:10:34;;;;;;;5.07;3.40;;;21.00;99.90;;;;;;4376874;28;657469;-73
2023/06/07 06:13:21;;;;;;;6.03;3.30;;;21.00;99.90;;;;;;4335867;28;658169;-73
2023/06/07 06:16:08;;;;;;;4.13;2.93;;;21.00;99.90;;;;;;4340678;28;658533;-72
2023/06/07 06:18:55;;;;;;;7.00;2.60;;;21.00;99.90;;;;;;4362851;27;658588;-72
2023/06/07 06:21:43;;;;;;;5.53;3.40;;;20.80;99.90;;;;;;4367979;28;657946;-73
2023/06/07 06:24:30;;;;;;;4.73;3.20;;;20.80;99.90;;;;;;4342498;28;658043;-73
2023/06/07 06:27:20;;;;;;;5.10;3.33;;;20.80;99.90;;;;;;4397862;27;656583;-72
2023/06/07 06:30:09;;;;;;;7.07;3.77;;;20.60;99.90;;;;;;4363376;27;658103;-72
2023/06/07 06:32:56;;;;;;;7.63;3.40;;;20.60;99.90;;;;;;4359902;28;658061;-72
2023/06/07 06:35:44;;;;;;;6.03;3.37;;;20.60;99.90;;;;;;4382835;27;657359;-72
2023/06/07 06:38:31;;;;;;;3.80;3.10;;;20.70;99.90;;;;;;4360634;27;658935;-72
2023/06/07 06:41:18;;;;;;;3.53;2.97;;;20.90;99.90;;;;;;4395062;27;657956;-72
2023/06/07 06:44:07;;;;;;;3.37;3.00;;;21.10;99.90;;;;;;4379680;27;657566;-72
2023/06/07 06:46:54;;;;;;;3.33;2.70;;;21.20;99.90;;;;;;4391154;27;658197;-72
2023/06/07 06:49:41;;;;;;;3.30;2.97;;;21.40;99.90;;;;;;4370065;27;657408;-73
2023/06/07 06:52:28;;;;;;;3.90;2.97;;;21.50;99.90;;;;;;4392334;27;658246;-71
2023/06/07 06:55:16;;;;;;;4.43;3.47;;;21.50;99.90;;;;;;4368025;27;658046;-72
2023/06/07 06:58:04;;;;;;;7.03;3.27;;;21.50;99.90;;;;;;4372639;28;658748;-72
2023/06/07 07:00:52;;;;;;;6.17;2.90;;;21.60;99.90;;;;;;4355115;28;657367;-72
2023/06/07 07:03:41;;;;;;;4.57;2.93;;;21.60;99.90;;;;;;4375522;28;657562;-72
2023/06/07 07:06:28;;;;;;;3.37;2.87;;;21.80;99.90;;;;;;4382045;28;658706;-72
2023/06/07 07:09:16;;;;;;;4.50;3.33;;;21.80;99.90;;;;;;4355787;28;657658;-72
2023/06/07 07:12:03;;;;;;;3.90;3.10;;;21.90;99.90;;;;;;4375237;28;658455;-72
2023/06/07 07:14:50;;;;;;;3.67;3.00;;;22.10;99.90;;;;;;4357221;28;658040;-72
2023/06/07 07:17:45;;;;;;;8.17;3.17;;;22.00;99.90;;;;;;4376087;28;659164;-71
2023/06/07 07:20:32;;;;;;;4.90;3.50;;;22.00;99.90;;;;;;4362209;28;659515;-72
2023/06/07 07:23:19;;;;;;;4.40;3.57;;;22.20;99.90;;;;;;4377098;28;657657;-71
2023/06/07 07:26:06;;;;;;;5.10;3.53;;;22.10;99.90;;;;;;4357766;28;657428;-71
2023/06/07 07:28:53;;;;;;;7.20;3.60;;;22.30;99.90;;;;;;4378139;28;658389;-72
2023/06/07 07:31:41;;;;;;;4.77;3.20;;;22.40;99.90;;;;;;4360697;28;657981;-72
2023/06/07 07:34:29;;;;;;;8.17;3.90;;;22.50;99.90;;;;;;4376799;28;658145;-71
2023/06/07 07:37:17;;;;;;;5.70;3.60;;;22.50;99.90;;;;;;4358264;28;657668;-72
2023/06/07 07:40:05;;;;;;;6.40;3.60;;;22.70;99.90;;;;;;4375839;28;657314;-72
2023/06/07 07:42:52;;;;;;;4.87;3.90;;;23.00;99.90;;;;;;4355484;28;658407;-72
2023/06/07 07:45:39;;;;;;;5.60;3.57;;;23.00;99.90;;;;;;4368550;28;657307;-71
2023/06/07 07:48:27;;;;;;;3.47;3.17;;;23.10;99.90;;;;;;4355757;28;657354;-71
2023/06/07 07:51:15;;;;;;;5.00;3.70;;;23.10;99.90;;;;;;4373065;28;658510;-71
2023/06/07 07:54:03;;;;;;;8.73;3.27;;;23.10;99.90;;;;;;4362145;28;658675;-72
2023/06/07 07:56:51;;;;;;;5.37;3.17;;;23.30;99.90;;;;;;4366025;28;658168;-72
2023/06/07 07:59:38;;;;;;;4.27;2.47;;;23.40;99.90;;;;;;4387506;28;658583;-72
2023/06/07 08:02:25;;;;;;;5.47;2.77;;;23.20;99.90;;;;;;4358194;28;658021;-72
2023/06/07 08:05:12;;;;;;;5.20;2.70;;;23.40;99.90;;;;;;4374110;28;657571;-72
2023/06/07 08:08:02;;;;;;;4.03;2.80;;;23.60;99.90;;;;;;4379709;28;658043;-72
2023/06/07 08:10:49;;;;;;;3.70;3.00;;;23.80;99.90;;;;;;4375946;28;657750;-72
2023/06/07 08:13:36;;;;;;;3.10;2.78;;;23.90;99.90;;;;;;4356616;28;657306;-71
2023/06/07 08:16:24;;;;;;;4.15;2.83;;;24.00;99.90;;;;;;4374730;28;657465;-72
2023/06/07 08:19:11;;;;;;;5.13;3.00;;;24.00;99.90;;;;;;4358648;28;657977;-72
2023/06/07 08:21:59;;;;;;;4.20;2.70;;;24.00;99.90;;;;;;4371683;28;657699;-71
2023/06/07 08:24:47;;;;;;;5.18;2.80;;;23.80;99.90;;;;;;4354996;28;659724;-70
2023/06/07 08:27:35;;;;;;;4.13;2.92;;;23.90;99.90;;;;;;4372010;28;657474;-72
2023/06/07 08:30:23;;;;;;;4.88;2.80;;;23.80;99.90;;;;;;4389218;28;659281;-71
2023/06/07 08:33:11;;;;;;;4.65;3.22;;;24.00;99.90;;;;;;4359084;28;657452;-72
2023/06/07 08:35:58;;;;;;;5.53;2.97;;;24.00;99.90;;;;;;4375575;28;659273;-72
2023/06/07 08:38:46;;;;;;;3.30;2.70;;;23.90;99.90;;;;;;4361545;27;658112;-72
2023/06/07 08:41:34;;;;;;;4.13;2.83;;;24.00;99.90;;;;;;4383090;28;659099;-71
2023/06/07 08:44:22;;;;;;;3.72;2.80;;;24.10;99.90;;;;;;4358516;28;657397;-71
2023/06/07 08:47:09;;;;;;;3.83;3.13;;;24.40;99.90;;;;;;4380117;28;658178;-71
2023/06/07 08:49:57;;;;;;;4.10;3.10;;;24.50;99.90;;;;;;4375237;28;657725;-71
2023/06/07 08:52:48;;;;;;;3.30;2.83;;;24.30;99.90;;;;;;4375073;28;657566;-71
2023/06/07 08:55:35;;;;;;;3.80;3.15;;;24.40;99.90;;;;;;4351081;27;657890;-71
2023/06/07 08:58:25;;;;;;;4.10;2.70;;;24.30;99.90;;;;;;4392839;28;659075;-71
2023/06/07 09:01:12;;;;;;;3.08;2.70;;;24.30;99.90;;;;;;4359531;28;659533;-71
2023/06/07 09:03:59;;;;;;;3.13;2.40;;;24.50;99.90;;;;;;4375188;28;658004;-71
2023/06/07 09:06:47;;;;;;;4.53;2.40;;;24.70;99.90;;;;;;4363373;28;657808;-71
2023/06/07 09:09:34;;;;;;;3.42;2.50;;;24.60;99.90;;;;;;4380008;28;658204;-72
2023/06/07 09:12:21;;;;;;;3.63;2.90;;;24.60;99.90;;;;;;4359268;28;657710;-71
2023/06/07 09:15:11;;;;;;;3.83;2.58;;;24.80;99.90;;;;;;4377961;28;658369;-72
2023/06/07 09:17:59;;;;;;;3.50;2.15;;;25.10;99.90;;;;;;4350630;28;658879;-71
2023/06/07 09:20:46;;;;;;;2.85;2.33;;;25.40;99.90;;;;;;4360600;28;658435;-72
2023/06/07 09:23:36;;;;;;;3.08;2.10;;;25.40;99.90;;;;;;4383470;28;659203;-71
2023/06/07 09:26:23;;;;;;;3.70;2.38;;;25.30;99.90;;;;;;4367412;27;658169;-71
2023/06/07 09:29:11;;;;;;;3.50;2.25;;;25.10;99.90;;;;;;4364361;28;657772;-72
2023/06/07 09:32:02;;;;;;;3.53;2.33;;;25.10;99.90;;;;;;4380383;28;657496;-71
2023/06/07 09:34:52;;;;;;;3.13;2.45;;;24.90;99.90;;;;;;4350655;28;658046;-71
2023/06/07 09:37:43;;;;;;;3.75;2.22;;;24.90;99.90;;;;;;4356530;28;657798;-71
2023/06/07 09:40:31;;;;;;;2.67;1.90;;;25.00;99.90;;;;;;4345112;27;657852;-71
2023/06/07 09:43:19;;;;;;;3.15;2.05;;;24.80;99.90;;;;;;4385012;28;658026;-71
2023/06/07 09:46:06;;;;;;;2.95;2.10;;;24.50;99.90;;;;;;4362217;28;657944;-71
2023/06/07 09:48:54;;;;;;;3.15;2.22;;;24.40;99.90;;;;;;4394123;28;658267;-71
2023/06/07 09:51:42;;;;;;;4.57;2.13;;;24.40;99.90;;;;;;4364902;27;659057;-71
2023/06/07 09:54:36;;;;;;;3.58;2.25;;;24.60;99.90;;;;;;4373779;28;658082;-71
2023/06/07 09:57:30;;;;;;;3.08;2.13;;;24.60;99.90;;;;;;4365756;28;657891;-72
2023/06/07 10:00:19;;;;;;;3.38;2.08;;;24.90;99.90;;;;;;4359529;28;658219;-72
2023/06/07 10:03:06;;;;;;;3.95;2.22;;;25.30;99.90;;;;;;4355692;28;658061;-71
2023/06/07 10:05:55;;;;;;;2.72;1.70;;;25.20;99.90;;;;;;4385789;28;658810;-71
2023/06/07 10:08:42;;;;;;;6.57;1.98;;;25.40;99.90;;;;;;4365500;28;658465;-72
2023/06/07 10:11:30;;;;;;;1.75;1.65;;;25.70;99.90;;;;;;4390309;27;657656;-71
2023/06/07 10:14:19;;;;;;;2.35;1.95;;;25.70;99.40;;;;;;4369282;28;658221;-71
2023/06/07 10:17:07;;;;;;;3.72;2.08;;;26.10;98.00;;;;;;4363346;28;658308;-71
2023/06/07 10:19:57;;;;;;;3.88;2.17;;;26.60;97.50;;;;;;4390992;28;658040;-71
2023/06/07 10:22:47;;;;;;;2.92;2.30;;;26.70;92.60;;;;;;4373642;28;657473;-71
2023/06/07 10:25:37;;;;;;;4.75;2.08;;;26.70;96.40;;;;;;4373391;28;657553;-72
2023/06/07 10:28:32;;;;;;;2.53;2.33;;;26.70;96.40;;;;;;4381242;28;657751;-71
2023/06/07 10:31:20;;;;;;;5.45;2.30;;;27.00;95.10;;;;;;4351635;28;657401;-71
2023/06/07 10:34:09;;;;;;;3.35;2.20;;;26.30;93.50;;;;;;4352486;28;658879;-71
2023/06/07 10:36:58;;;;;;;3.17;2.35;;;26.10;93.90;;;;;;4375170;28;657430;-70
2023/06/07 10:39:47;;;;;;;3.25;1.95;;;26.40;94.70;;;;;;4366594;28;657558;-71
2023/06/07 10:42:34;;;;;;;4.57;2.10;;;26.50;92.80;;;;;;4402265;27;658776;-71
2023/06/07 10:45:22;;;;;;;4.20;2.42;;;26.90;95.30;;;;;;4355917;28;658118;-71
2023/06/07 10:48:34;;;;;;;3.80;2.50;;;27.50;93.50;;;;;;4376979;28;658173;-71
2023/06/07 10:51:58;;;;;;;3.70;2.30;;;27.20;90.00;;;;;;4358876;28;657702;-72
2023/06/07 10:54:47;;;;;;;2.30;2.10;;;27.10;88.30;;;;;;4334424;28;658065;-71
2023/06/07 10:57:35;;;;;;;2.50;2.30;;;27.30;85.70;;;;;;4380822;28;658102;-71
2023/06/07 11:00:28;;;;;;;4.38;2.80;;;27.10;84.70;;;;;;4355409;28;658023;-71
2023/06/07 11:03:41;;;;;;;6.43;2.83;;;27.10;89.70;;;;;;4336442;28;657396;-71
2023/06/07 11:06:28;;;;;;;3.00;2.80;;;27.60;84.10;;;;;;4360233;28;658382;-72
2023/06/07 11:09:19;;;;;;;4.20;2.60;;;27.60;81.80;;;;;;4376605;27;657727;-71
2023/06/07 11:12:08;;;;;;;5.25;2.85;;;27.60;80.20;;;;;;4387317;27;657865;-71
2023/06/07 11:15:25;;;;;;;4.82;2.35;;;27.80;78.80;;;;;;4380440;27;658349;-71
2023/06/07 11:18:12;;;;;;;4.18;2.50;;;27.90;78.50;;;;;;4348960;28;657762;-71
2023/06/07 11:20:59;;;;;;;2.20;1.98;;;27.60;78.10;;;;;;4418225;27;658133;-71
2023/06/07 11:23:46;;;;;;;3.67;1.80;;;27.80;75.60;;;;;;4390587;27;657845;-71
2023/06/07 11:26:35;;;;;;;2.40;2.20;;;27.30;70.90;;;;;;4380778;28;658695;-72
2023/06/07 11:29:24;;;;;;;2.83;2.35;;;27.50;73.20;;;;;;4352340;28;658709;-71
2023/06/07 11:32:12;;;;;;;2.58;2.33;;;27.80;75.70;;;;;;4358139;28;657901;-71
2023/06/07 11:35:02;;;;;;;3.60;2.10;;;28.30;73.50;;;;;;4374473;28;657610;-72
2023/06/07 11:37:49;;;;;;;2.53;2.22;;;28.40;71.20;;;;;;4351940;28;657905;-71
2023/06/07 11:40:36;;;;;;;2.80;2.50;;;28.40;71.20;;;;;;4359532;28;657651;-71
2023/06/07 11:43:24;;;;;;;3.45;2.40;;;28.00;68.40;;;;;;4376348;28;657286;-71
2023/06/07 11:46:15;;;;;;;3.78;2.03;;;27.60;68.20;;;;;;4373757;28;657196;-71
2023/06/07 11:49:03;;;;;;;3.05;1.95;;;27.50;71.40;;;;;;4355677;28;658863;-71
2023/06/07 11:51:51;;;;;;;4.65;1.88;;;27.60;70.50;;;;;;4358138;28;657750;-71
2023/06/07 11:54:43;;;;;;;4.18;2.10;;;27.90;68.90;;;;;;4374038;28;658205;-72
2023/06/07 11:57:33;;;;;;;2.95;2.10;;;28.30;68.00;;;;;;4335417;28;658055;-72
2023/06/07 12:00:23;;;;;;;3.53;2.33;;;28.70;67.20;;;;;;4374494;28;657823;-72
2023/06/07 12:03:12;;;;;;;2.97;2.20;;;29.10;67.00;;;;;;4377163;27;657738;-72
2023/06/07 12:05:59;;;;;;;1.92;1.77;;;29.10;62.70;;;;;;4378499;28;657212;-71
2023/06/07 12:08:50;;;;;;;3.08;2.47;;;28.80;62.50;;;;;;4359820;28;658315;-71
2023/06/07 12:11:38;;;;;;;7.45;2.80;;;28.20;61.50;;;;;;4369243;28;658478;-71
2023/06/07 12:14:32;;;;;;;2.65;2.45;;;27.90;64.60;;;;;;4383827;28;657469;-72
2023/06/07 12:17:20;;;;;;;2.45;2.10;;;27.70;69.20;;;;;;4373087;28;658294;-71
2023/06/07 12:20:11;;;;;;;2.38;1.80;;;27.80;67.20;;;;;;4361624;28;659449;-71
2023/06/07 12:23:07;;;;;;;2.20;2.00;;;28.10;62.90;;;;;;4354340;28;658490;-72
2023/06/07 12:26:06;;;;;;;2.92;1.80;;;28.00;64.00;;;;;;4355998;28;657918;-72
2023/06/07 12:28:53;;;;;;;1.30;1.20;;;28.10;62.00;;;;;;4367130;28;657674;-71
2023/06/07 12:31:40;;;;;;;3.60;1.83;;;28.40;58.10;;;;;;4360576;28;658047;-72
2023/06/07 12:34:29;;;;;;;0.88;0.85;;;28.50;59.40;;;;;;4385939;28;658717;-71
2023/06/07 12:37:18;;;;;;;1.98;1.33;;;28.50;54.20;;;;;;4364589;28;658907;-72
2023/06/07 12:40:07;;;;;;;2.70;1.65;;;28.30;57.00;;;;;;4369311;28;657820;-71
2023/06/07 12:42:54;;;;;;;2.40;2.00;;;28.00;57.80;;;;;;4381748;28;658023;-71
2023/06/07 12:45:42;;;;;;;4.63;2.20;;;28.00;59.80;;;;;;4372893;28;659093;-71
2023/06/07 12:48:29;;;;;;;2.70;2.10;;;28.30;58.90;;;;;;4384872;28;658528;-70
2023/06/07 12:51:16;;;;;;;2.20;2.00;;;28.00;59.80;;;;;;4362364;28;658155;-72
2023/06/07 12:54:05;;;;;;;3.22;2.55;;;27.60;61.60;;;;;;4378216;28;659270;-71
2023/06/07 12:56:53;;;;;;;3.13;2.83;;;27.30;65.10;;;;;;4366644;28;658469;-71
2023/06/07 12:59:40;;;;;;;5.25;2.60;;;27.10;68.30;;;;;;4373659;28;657470;-71
2023/06/07 13:02:27;;;;;;;3.38;2.63;;;27.00;68.50;;;;;;4385362;28;659273;-70
2023/06/07 13:05:15;;;;;;;2.40;2.20;;;27.10;69.80;;;;;;4377823;28;658177;-70
2023/06/07 13:08:03;;;;;;;3.80;2.95;;;27.30;69.00;;;;;;4405262;27;658716;-70
2023/06/07 13:10:52;;;;;;;3.38;2.60;;;27.10;72.90;;;;;;4379754;28;657735;-74
2023/06/07 13:13:40;;;;;;;5.35;1.88;;;27.60;70.60;;;;;;4383733;28;657500;-73
2023/06/07 13:16:28;;;;;;;4.25;2.70;;;27.50;67.90;;;;;;4372114;28;658664;-72
2023/06/07 13:19:15;;;;;;;3.33;3.03;;;27.80;70.00;;;;;;4359682;28;658036;-73
2023/06/07 13:22:02;;;;;;;2.90;2.60;;;28.00;70.10;;;;;;4377323;28;659068;-73
2023/06/07 13:24:50;;;;;;;3.00;2.28;;;28.50;67.40;;;;;;4372616;28;658728;-73
2023/06/07 13:27:39;;;;;;;1.92;1.73;;;28.60;67.60;;;;;;4386191;28;658250;-72
2023/06/07 13:30:26;;;;;;;2.63;2.13;;;29.10;61.00;;;;;;4360775;28;657720;-73
2023/06/07 13:33:17;;;;;;;3.03;2.17;;;29.10;62.20;;;;;;4383409;28;657556;-72
2023/06/07 13:36:05;;;;;;;3.28;2.15;;;29.40;60.80;;;;;;4357077;28;657427;-73
2023/06/07 13:38:53;;;;;;;4.88;2.47;;;29.60;63.60;;;;;;4349548;28;658433;-73
2023/06/07 13:41:42;;;;;;;2.90;2.30;;;30.00;59.80;;;;;;4365089;28;658366;-73
2023/06/07 13:44:30;;;;;;;2.70;2.40;;;30.10;57.80;;;;;;4392354;28;657916;-73
2023/06/07 13:47:18;;;;;;;3.30;2.50;;;29.60;58.90;;;;;;4366598;28;658342;-73
2023/06/07 13:50:06;;;;;;;5.05;2.60;;;29.40;60.00;;;;;;4377218;28;657710;-73
2023/06/07 13:52:54;;;;;;;2.70;2.28;;;29.30;60.10;;;;;;4396618;27;657989;-73
2023/06/07 13:55:41;;;;;;;5.18;2.50;;;28.70;61.40;;;;;;4374132;28;657785;-73
2023/06/07 13:58:32;;;;;;;2.50;2.30;;;28.20;63.00;;;;;;4396934;27;658739;-72
2023/06/07 14:01:20;;;;;;;2.80;2.33;;;27.90;65.80;;;;;;4367310;27;657987;-72
2023/06/07 14:04:08;;;;;;;2.75;2.40;;;28.30;66.80;;;;;;4356232;28;658618;-73
2023/06/07 14:06:55;;;;;;;2.22;2.05;;;28.50;63.30;;;;;;4378638;27;658495;-73
2023/06/07 14:09:42;;;;;;;2.92;2.30;;;28.70;61.40;;;;;;4383143;28;658444;-73
2023/06/07 14:12:30;;;;;;;2.95;2.05;;;28.40;61.30;;;;;;4407814;27;657609;-73
2023/06/07 14:15:17;;;;;;;2.95;2.13;;;28.60;58.70;;;;;;4425703;27;658851;-73
2023/06/07 14:18:08;;;;;;;2.67;2.45;;;28.70;57.90;;;;;;4394668;27;657536;-73
2023/06/07 14:20:55;;;;;;;2.42;1.90;;;29.00;58.90;;;;;;4403663;27;657687;-73